Time;durP1;ratioP1;P1;durP2;ratioP2;P2;SDS_P1;SDS_P2;PMS_P1;PMS_P2;Temp;Humidity;BMP_temperature;BMP_pressure;BME280_temperature;BME280_humidity;BME280_pressure;Samples;Min_cycle;Max_cycle;Signal;HPM_P1;HPM_P2
2023/08/19 00:00:13;;;;;;;15.98;14.52;;;;;;;-146.25;100.00;52210.03;2088447;28;33968;-64
2023/08/19 00:01:20;;;;;;;15.68;14.23;;;;;;;-146.25;100.00;52210.03;2087507;28;43544;-64
2023/08/19 00:02:21;;;;;;;16.08;14.50;;;;;;;-146.25;100.00;52195.84;2088383;28;33971;-65
2023/08/19 00:03:23;;;;;;;16.00;14.45;;;;;;;-146.25;100.00;52210.03;2088060;28;35899;-65
2023/08/19 00:04:25;;;;;;;16.25;14.63;;;;;;;-146.25;100.00;52222.22;2087688;28;34855;-64
2023/08/19 00:05:27;;;;;;;16.27;14.63;;;;;;;-146.25;100.00;52195.84;2087513;28;34043;-65
2023/08/19 00:06:39;;;;;;;15.27;13.98;;;;;;;-146.25;100.00;52185.72;2088506;28;33851;-64
2023/08/19 00:07:41;;;;;;;16.13;14.63;;;;;;;-146.25;100.00;52165.44;2087677;28;29462;-64
2023/08/19 00:08:42;;;;;;;14.73;13.38;;;;;;;-146.25;100.00;52175.56;2087799;28;38019;-64
2023/08/19 00:09:44;;;;;;;15.25;13.68;;;;;;;-146.25;100.00;52181.66;2088778;28;20044;-64
2023/08/19 00:10:46;;;;;;;14.48;13.20;;;;;;;-146.25;100.00;52218.16;2089151;28;20037;-64
2023/08/19 00:11:50;;;;;;;15.40;13.80;;;;;;;-146.25;100.00;52210.03;2088023;28;31511;-64
2023/08/19 00:12:52;;;;;;;14.73;13.32;;;;;;;-146.25;100.00;52191.81;2088948;28;24445;-62
2023/08/19 00:13:56;;;;;;;15.30;14.00;;;;;;;-146.25;100.00;52181.66;2087624;28;31698;-64
2023/08/19 00:14:58;;;;;;;15.43;13.88;;;;;;;-146.25;100.00;52216.13;2088402;28;33366;-64
2023/08/19 00:16:00;;;;;;;15.52;13.88;;;;;;;-146.25;100.00;52208.03;2087980;28;31788;-64
2023/08/19 00:17:04;;;;;;;15.02;13.65;;;;;;;-146.25;100.00;52195.84;2088293;28;20037;-64
2023/08/19 00:18:06;;;;;;;15.48;13.85;;;;;;;-146.25;100.00;52179.63;2087716;28;36963;-64
2023/08/19 00:19:08;;;;;;;16.58;14.95;;;;;;;-146.25;100.00;52197.88;2088608;28;30957;-64
2023/08/19 00:20:11;;;;;;;15.23;13.88;;;;;;;-146.25;100.00;52197.88;2087819;28;35830;-63
2023/08/19 00:21:15;;;;;;;15.80;14.20;;;;;;;-146.25;100.00;52216.13;2088018;28;37054;-62
2023/08/19 00:22:17;;;;;;;14.63;13.32;;;;;;;-146.25;100.00;52191.81;2088632;28;20034;-65
2023/08/19 00:23:24;;;;;;;15.43;13.82;;;;;;;-146.25;100.00;52195.84;2088438;28;37548;-64
2023/08/19 00:24:26;;;;;;;15.50;14.10;;;;;;;-146.25;100.00;52199.91;2087915;28;33365;-64
2023/08/19 00:25:27;;;;;;;14.93;13.48;;;;;;;-146.25;100.00;52187.75;2088816;28;20799;-64
2023/08/19 00:26:29;;;;;;;14.88;13.43;;;;;;;-146.25;100.00;52169.50;2087957;28;34949;-63
2023/08/19 00:27:31;;;;;;;15.45;13.85;;;;;;;-146.25;100.00;52206.00;2079637;28;25807;-64
2023/08/19 00:28:33;;;;;;;14.88;13.45;;;;;;;-146.25;100.00;52230.31;2079494;28;20089;-64
2023/08/19 00:29:37;;;;;;;14.50;13.25;;;;;;;-146.25;100.00;52163.41;2079697;28;25695;-64
2023/08/19 00:30:39;;;;;;;15.57;14.20;;;;;;;-146.25;100.00;52201.94;2079579;28;28468;-64
2023/08/19 00:31:42;;;;;;;15.00;13.43;;;;;;;-146.25;100.00;52187.75;2088164;28;23634;-64
2023/08/19 00:32:44;;;;;;;14.85;13.45;;;;;;;-146.25;100.00;52177.59;2088073;28;29364;-63
2023/08/19 00:33:46;;;;;;;14.95;13.52;;;;;;;-146.25;100.00;52216.13;2087871;28;20046;-64
2023/08/19 00:34:48;;;;;;;15.18;13.88;;;;;;;-146.25;100.00;52185.72;2079645;28;20042;-65
2023/08/19 00:35:53;;;;;;;15.98;14.30;;;;;;;-146.25;100.00;52173.56;2080009;28;20160;-64
2023/08/19 00:36:56;;;;;;;15.48;13.88;;;;;;;-146.25;100.00;52191.81;2088362;28;20049;-64
2023/08/19 00:38:00;;;;;;;15.20;13.85;;;;;;;-146.25;100.00;52195.84;2096207;28;29773;-64
2023/08/19 00:39:03;;;;;;;15.07;13.50;;;;;;;-146.25;100.00;52203.97;2087561;28;20213;-65
2023/08/19 00:40:06;;;;;;;15.23;13.73;;;;;;;-146.25;100.00;52189.78;2088782;28;20033;-63
2023/08/19 00:41:11;;;;;;;15.98;14.43;;;;;;;-146.25;100.00;52224.25;2086984;28;36512;-64
2023/08/19 00:42:12;;;;;;;15.43;14.02;;;;;;;-146.25;100.00;52226.25;2087916;28;25683;-64
2023/08/19 00:43:14;;;;;;;15.60;14.10;;;;;;;-146.25;100.00;52183.69;2087170;28;29125;-64
2023/08/19 00:44:16;;;;;;;14.88;13.48;;;;;;;-146.25;100.00;52181.66;2079133;28;31007;-64
2023/08/19 00:45:18;;;;;;;15.75;14.20;;;;;;;-146.25;100.00;52218.16;2079893;28;20101;-64
2023/08/19 00:46:20;;;;;;;14.68;13.38;;;;;;;-146.25;100.00;52173.56;2080038;28;34073;-64
2023/08/19 00:47:23;;;;;;;15.48;13.95;;;;;;;-146.25;100.00;52226.25;2078808;28;30911;-65
2023/08/19 00:48:25;;;;;;;14.95;13.55;;;;;;;-146.25;100.00;52191.81;2079885;28;22287;-64
2023/08/19 00:49:31;;;;;;;14.43;13.20;;;;;;;-146.25;100.00;52214.09;2078980;28;26771;-65
2023/08/19 00:50:33;;;;;;;15.35;13.75;;;;;;;-146.25;100.00;52208.03;2072193;28;37472;-64
2023/08/19 00:51:35;;;;;;;15.63;14.02;;;;;;;-146.25;100.00;52171.53;2079576;28;22524;-64
2023/08/19 00:52:38;;;;;;;15.70;14.30;;;;;;;-146.25;100.00;52193.81;2079421;28;20883;-64
2023/08/19 00:53:41;;;;;;;15.15;13.80;;;;;;;-146.25;100.00;52191.81;2079668;28;20127;-64
2023/08/19 00:54:47;;;;;;;15.80;14.13;;;;;;;-146.25;100.00;52226.25;2080547;28;20054;-64
2023/08/19 00:55:49;;;;;;;15.85;14.30;;;;;;;-146.25;100.00;52201.94;2079379;28;20119;-64
2023/08/19 00:56:51;;;;;;;16.13;14.45;;;;;;;-146.25;100.00;52173.56;2079086;28;31988;-64
2023/08/19 00:57:53;;;;;;;15.45;14.05;;;;;;;-146.25;100.00;52201.94;2079826;28;29772;-64
2023/08/19 00:58:56;;;;;;;15.77;14.20;;;;;;;-146.25;100.00;52197.88;2079522;28;26156;-64
2023/08/19 00:59:57;;;;;;;16.30;13.70;;;;;;;-146.25;100.00;52220.19;2079167;28;32339;-64
2023/08/19 01:01:00;;;;;;;15.70;14.18;;;;;;;-146.25;100.00;52222.22;2079460;28;28241;-65
2023/08/19 01:02:02;;;;;;;16.45;14.30;;;;;;;-146.25;100.00;52238.44;2071575;28;20142;-64
2023/08/19 01:03:04;;;;;;;16.02;14.52;;;;;;;-146.25;100.00;52177.59;2079020;28;30885;-64
2023/08/19 01:04:07;;;;;;;16.00;14.43;;;;;;;-146.25;100.00;52214.09;2079664;28;20057;-64
2023/08/19 01:05:12;;;;;;;16.02;14.38;;;;;;;-146.25;100.00;52161.38;2080609;28;20042;-64
2023/08/19 01:06:36;;;;;;;16.27;14.82;;;;;;;-146.25;100.00;52210.03;2080129;28;20367;-64
2023/08/19 01:07:41;;;;;;;16.60;14.90;;;;;;;-146.25;100.00;52222.22;2071035;28;31088;-64
2023/08/19 01:09:03;;;;;;;15.88;14.38;;;;;;;-146.25;100.00;52193.81;2073104;28;31555;-64
2023/08/19 01:10:16;;;;;;;16.48;15.07;;;;;;;-146.25;100.00;52214.09;2079436;28;20866;-63
2023/08/19 01:11:51;;;;;;;17.10;15.40;;;;;;;-146.25;100.00;52201.94;2083519;28;20069;-64
2023/08/19 01:13:14;;;;;;;15.30;13.80;;;;;;;-146.25;100.00;52238.44;2088305;28;28684;-64
2023/08/19 01:14:56;;;;;;;16.80;15.13;;;;;;;-146.25;100.00;52216.13;2087424;28;22358;-64
2023/08/19 01:16:28;;;;;;;16.08;14.65;;;;;;;-146.25;100.00;52216.13;2087427;28;20048;-64
2023/08/19 01:17:33;;;;;;;16.35;14.95;;;;;;;-146.25;100.00;52220.19;2087591;28;29471;-64
2023/08/19 01:18:39;;;;;;;17.10;15.50;;;;;;;-146.25;100.00;52206.00;2078460;28;32358;-64
2023/08/19 01:19:42;;;;;;;15.85;14.32;;;;;;;-146.25;100.00;52216.13;2072214;28;36027;-64
2023/08/19 01:20:45;;;;;;;17.15;15.57;;;;;;;-146.25;100.00;52195.84;2072016;28;25738;-64
2023/08/19 01:21:52;;;;;;;17.27;15.60;;;;;;;-146.25;100.00;52201.94;2079462;28;32161;-63
2023/08/19 01:23:03;;;;;;;18.25;16.38;;;;;;;-146.25;100.00;52201.94;2080105;28;20141;-64
2023/08/19 01:24:07;;;;;;;17.00;15.38;;;;;;;-146.25;100.00;52210.03;2081067;28;20243;-64
2023/08/19 01:25:11;;;;;;;17.52;15.82;;;;;;;-146.25;100.00;52203.97;2079998;28;20038;-64
2023/08/19 01:26:12;;;;;;;17.17;15.55;;;;;;;-146.25;100.00;52195.84;2087673;28;26942;-64
2023/08/19 01:27:26;;;;;;;16.38;14.77;;;;;;;-146.25;100.00;52226.25;2079536;28;25837;-64
2023/08/19 01:28:30;;;;;;;17.48;15.75;;;;;;;-146.25;100.00;52165.44;2089513;28;20111;-63
2023/08/19 01:29:32;;;;;;;16.98;15.23;;;;;;;-146.25;100.00;52187.75;2096062;28;20033;-63
2023/08/19 01:30:34;;;;;;;16.98;15.27;;;;;;;-146.25;100.00;52234.38;2088010;28;29238;-64
2023/08/19 01:31:39;;;;;;;17.90;16.10;;;;;;;-146.25;100.00;52250.59;2087326;28;20167;-64
2023/08/19 01:32:43;;;;;;;17.55;15.95;;;;;;;-146.25;100.00;52214.09;2071044;28;34997;-64
2023/08/19 01:33:45;;;;;;;17.27;15.60;;;;;;;-146.25;100.00;52250.59;2079916;28;25971;-63
2023/08/19 01:34:49;;;;;;;17.45;15.88;;;;;;;-146.25;100.00;52244.50;2087090;28;27456;-64
2023/08/19 01:36:17;;;;;;;16.75;15.18;;;;;;;-146.25;100.00;52195.84;2087257;28;32367;-63
2023/08/19 01:37:41;;;;;;;18.05;16.27;;;;;;;-146.25;100.00;52210.03;2088134;28;20164;-64
2023/08/19 01:39:00;;;;;;;18.13;16.20;;;;;;;-146.25;100.00;52220.19;2079123;28;29810;-64
2023/08/19 01:40:06;;;;;;;16.92;15.23;;;;;;;-146.25;100.00;52193.81;2077834;28;20053;-63
2023/08/19 01:41:14;;;;;;;16.60;15.00;;;;;;;-146.25;100.00;52232.34;2081803;28;34172;-63
2023/08/19 01:42:17;;;;;;;18.27;16.67;;;;;;;-146.25;100.00;52181.66;2080437;28;30092;-62
2023/08/19 01:43:19;;;;;;;16.83;15.25;;;;;;;-146.25;100.00;52187.75;2087024;28;26221;-64
2023/08/19 01:44:23;;;;;;;20.08;17.27;;;;;;;-146.25;100.00;52222.22;2087217;28;36094;-64
2023/08/19 01:45:26;;;;;;;17.67;15.98;;;;;;;-146.25;100.00;52203.97;2087554;28;20119;-64
2023/08/19 01:46:30;;;;;;;18.13;16.48;;;;;;;-146.25;100.00;52218.16;2087710;28;20135;-63
2023/08/19 01:47:32;;;;;;;19.42;17.45;;;;;;;-146.25;100.00;52214.09;2087677;28;24177;-64
2023/08/19 01:48:36;;;;;;;17.08;15.52;;;;;;;-146.25;100.00;52159.34;2088578;28;20620;-63
2023/08/19 01:49:38;;;;;;;18.50;16.80;;;;;;;-146.25;100.00;52206.00;2087702;28;28425;-64
2023/08/19 01:50:40;;;;;;;18.17;16.33;;;;;;;-146.25;100.00;52210.03;2088100;28;28834;-63
2023/08/19 01:51:41;;;;;;;18.60;16.48;;;;;;;-146.25;100.00;52185.72;2087900;28;20045;-63
2023/08/19 01:52:43;;;;;;;18.13;16.45;;;;;;;-146.25;100.00;52222.22;2079555;28;21008;-63
2023/08/19 01:53:45;;;;;;;20.13;18.08;;;;;;;-146.25;100.00;52195.84;2079130;28;21018;-64
2023/08/19 01:54:48;;;;;;;19.08;17.35;;;;;;;-146.25;100.00;52246.53;2088160;28;20127;-63
2023/08/19 01:55:52;;;;;;;18.20;16.35;;;;;;;-146.25;100.00;52214.09;2087025;28;30189;-63
2023/08/19 01:56:54;;;;;;;19.20;17.25;;;;;;;-146.25;100.00;52246.53;2080088;28;20060;-64
2023/08/19 01:57:58;;;;;;;20.50;17.52;;;;;;;-146.25;100.00;52199.91;2079196;28;20227;-63
2023/08/19 01:59:00;;;;;;;19.17;17.38;;;;;;;-146.25;100.00;52242.50;2079154;28;23375;-63
2023/08/19 02:00:07;;;;;;;19.35;17.65;;;;;;;-146.25;100.00;52230.31;2087131;28;20801;-64
2023/08/19 02:01:17;;;;;;;17.45;15.82;;;;;;;-146.25;100.00;52240.47;2087799;28;20889;-63
2023/08/19 02:02:22;;;;;;;19.27;17.23;;;;;;;-146.25;100.00;52212.06;2086956;28;31016;-64
2023/08/19 02:03:24;;;;;;;19.38;17.00;;;;;;;-146.25;100.00;52206.00;2087165;28;27455;-63
2023/08/19 02:04:26;;;;;;;19.85;18.00;;;;;;;-146.25;100.00;52222.22;2086933;28;35781;-63
2023/08/19 02:05:28;;;;;;;19.23;17.63;;;;;;;-146.25;100.00;52197.88;2087276;28;20200;-63
2023/08/19 02:06:33;;;;;;;18.45;16.75;;;;;;;-146.25;100.00;52185.72;2087545;28;20176;-64
2023/08/19 02:07:35;;;;;;;18.83;17.15;;;;;;;-146.25;100.00;52218.16;2095962;28;20040;-63
2023/08/19 02:08:41;;;;;;;19.75;17.85;;;;;;;-146.25;100.00;52242.50;2087678;28;20041;-63
2023/08/19 02:09:44;;;;;;;18.80;17.00;;;;;;;-146.25;100.00;52177.59;2087656;28;20065;-63
2023/08/19 02:10:46;;;;;;;18.50;16.75;;;;;;;-146.25;100.00;52179.63;2078708;28;32172;-64
2023/08/19 02:11:50;;;;;;;20.02;18.05;;;;;;;-146.25;100.00;52206.00;2087204;28;30997;-64
2023/08/19 02:12:53;;;;;;;20.08;18.27;;;;;;;-146.25;100.00;52230.31;2079251;28;20049;-64
2023/08/19 02:13:55;;;;;;;20.23;18.20;;;;;;;-146.25;100.00;52206.00;2079333;28;20034;-63
2023/08/19 02:14:59;;;;;;;18.70;16.90;;;;;;;-146.25;100.00;52201.94;2078821;28;22039;-63
2023/08/19 02:16:02;;;;;;;19.13;17.33;;;;;;;-146.25;100.00;52224.25;2079181;28;20038;-64
2023/08/19 02:17:06;;;;;;;19.50;17.67;;;;;;;-146.25;100.00;52197.88;2070867;28;20046;-64
2023/08/19 02:18:07;;;;;;;19.35;17.60;;;;;;;-146.25;100.00;52238.44;2078915;28;32360;-64
2023/08/19 02:19:09;;;;;;;21.98;19.65;;;;;;;-146.25;100.00;52220.19;2079620;28;26921;-64
2023/08/19 02:20:11;;;;;;;18.98;17.10;;;;;;;-146.25;100.00;52193.81;2078528;28;29211;-64
2023/08/19 02:21:13;;;;;;;18.02;16.42;;;;;;;-146.25;100.00;52199.91;2078392;28;28983;-62
2023/08/19 02:22:20;;;;;;;19.45;17.63;;;;;;;-146.25;100.00;52210.03;2078878;28;34270;-64
2023/08/19 02:23:22;;;;;;;19.90;18.00;;;;;;;-146.25;100.00;52195.84;2079062;28;27855;-63
2023/08/19 02:24:25;;;;;;;21.02;18.98;;;;;;;-146.25;100.00;52234.38;2079853;28;26754;-64
2023/08/19 02:25:27;;;;;;;21.98;19.70;;;;;;;-146.25;100.00;52234.38;2078883;28;29882;-64
2023/08/19 02:26:28;;;;;;;21.08;19.05;;;;;;;-146.25;100.00;52230.31;2079965;28;23426;-62
2023/08/19 02:27:31;;;;;;;22.65;20.45;;;;;;;-146.25;100.00;52240.47;2079051;28;31270;-63
2023/08/19 02:28:33;;;;;;;21.52;19.52;;;;;;;-146.25;100.00;52177.59;2079173;28;21142;-64
2023/08/19 02:29:35;;;;;;;20.30;18.30;;;;;;;-146.25;100.00;52181.66;2070447;28;26536;-63
2023/08/19 02:30:37;;;;;;;21.70;19.73;;;;;;;-146.25;100.00;52187.75;2079041;28;21469;-63
2023/08/19 02:31:39;;;;;;;20.92;19.08;;;;;;;-146.25;100.00;52193.81;2078343;28;33720;-63
2023/08/19 02:32:41;;;;;;;21.65;19.40;;;;;;;-146.25;100.00;52203.97;2078760;28;32711;-63
2023/08/19 02:33:43;;;;;;;22.08;20.10;;;;;;;-146.25;100.00;52214.09;2079557;28;20908;-65
2023/08/19 02:34:47;;;;;;;21.45;19.33;;;;;;;-146.25;100.00;52226.25;2079619;28;28784;-63
2023/08/19 02:35:52;;;;;;;21.70;19.73;;;;;;;-146.25;100.00;52226.25;2079173;28;30682;-64
2023/08/19 02:36:53;;;;;;;22.40;20.17;;;;;;;-146.25;100.00;52197.88;2079201;28;28630;-63
2023/08/19 02:37:55;;;;;;;22.42;20.25;;;;;;;-146.25;100.00;52197.88;2079158;28;30387;-63
2023/08/19 02:38:58;;;;;;;20.73;18.92;;;;;;;-146.25;100.00;52230.31;2079014;28;20108;-63
2023/08/19 02:40:03;;;;;;;22.10;19.88;;;;;;;-146.25;100.00;52208.03;2070624;28;31029;-63
2023/08/19 02:41:05;;;;;;;21.75;19.67;;;;;;;-146.25;100.00;52224.25;2080686;28;21905;-63
2023/08/19 02:42:07;;;;;;;24.17;21.83;;;;;;;-146.25;100.00;52222.22;2080566;28;21993;-64
2023/08/19 02:43:09;;;;;;;22.17;20.00;;;;;;;-146.25;100.00;52201.94;2081497;28;22694;-63
2023/08/19 02:44:10;;;;;;;23.00;20.67;;;;;;;-146.25;100.00;52210.03;2080712;28;21005;-63
2023/08/19 02:45:12;;;;;;;20.98;19.10;;;;;;;-146.25;100.00;52185.72;2080699;28;29006;-63
2023/08/19 02:46:16;;;;;;;23.00;20.77;;;;;;;-146.25;100.00;52228.28;2079859;28;28434;-63
2023/08/19 02:47:18;;;;;;;21.05;19.15;;;;;;;-146.25;100.00;52210.03;2080786;28;20220;-64
2023/08/19 02:48:20;;;;;;;22.30;20.23;;;;;;;-146.25;100.00;52216.13;2080846;28;20190;-63
2023/08/19 02:49:22;;;;;;;23.67;21.38;;;;;;;-146.25;100.00;52224.25;2080488;28;20088;-63
2023/08/19 02:50:26;;;;;;;22.27;20.10;;;;;;;-146.25;100.00;52210.03;2080228;28;29123;-64
2023/08/19 02:51:28;;;;;;;23.38;21.15;;;;;;;-146.25;100.00;52252.63;2080182;28;29823;-64
2023/08/19 02:52:30;;;;;;;22.23;20.13;;;;;;;-146.25;100.00;52201.94;2079820;28;32331;-64
2023/08/19 02:53:36;;;;;;;23.90;21.50;;;;;;;-146.25;100.00;52214.09;2079746;28;35949;-64
2023/08/19 02:54:42;;;;;;;23.77;21.67;;;;;;;-146.25;100.00;52203.97;2080530;28;20164;-63
2023/08/19 02:55:45;;;;;;;24.35;22.15;;;;;;;-146.25;100.00;52234.38;2081216;28;20815;-63
2023/08/19 02:56:49;;;;;;;23.65;21.30;;;;;;;-146.25;100.00;52210.03;2080218;28;20038;-64
2023/08/19 02:57:53;;;;;;;21.42;19.30;;;;;;;-146.25;100.00;52214.09;2080837;28;20045;-64
2023/08/19 02:58:55;;;;;;;23.83;21.67;;;;;;;-146.25;100.00;52195.84;2079918;28;28562;-64
2023/08/19 02:59:56;;;;;;;23.38;21.17;;;;;;;-146.25;100.00;52203.97;2071942;28;28350;-64
2023/08/19 03:00:59;;;;;;;24.55;22.13;;;;;;;-146.25;100.00;52206.00;2080530;28;20038;-64
2023/08/19 03:02:00;;;;;;;23.48;21.15;;;;;;;-146.25;100.00;52224.25;2081192;28;20148;-64
2023/08/19 03:03:05;;;;;;;23.17;20.88;;;;;;;-146.25;100.00;52175.56;2080402;28;27783;-64
2023/08/19 03:04:07;;;;;;;23.88;21.38;;;;;;;-146.25;100.00;52208.03;2079754;28;32254;-64
2023/08/19 03:05:09;;;;;;;24.50;22.00;;;;;;;-146.25;100.00;52210.03;2080319;28;20811;-64
2023/08/19 03:06:11;;;;;;;22.83;20.63;;;;;;;-146.25;100.00;52226.25;2080239;28;27066;-64
2023/08/19 03:07:13;;;;;;;23.63;21.35;;;;;;;-146.25;100.00;52236.41;2072281;28;20088;-63
2023/08/19 03:08:17;;;;;;;24.88;22.38;;;;;;;-146.25;100.00;52226.25;2072372;28;20050;-64
2023/08/19 03:09:19;;;;;;;23.73;21.50;;;;;;;-146.25;100.00;52210.03;2071996;28;20695;-64
2023/08/19 03:10:21;;;;;;;24.95;22.52;;;;;;;-146.25;100.00;52203.97;2072165;28;20054;-64
2023/08/19 03:11:23;;;;;;;24.75;22.40;;;;;;;-146.25;100.00;52197.88;2084325;28;20918;-65
2023/08/19 03:12:27;;;;;;;26.20;23.60;;;;;;;-146.25;100.00;52220.19;2080487;28;20172;-65
2023/08/19 03:13:29;;;;;;;25.15;22.85;;;;;;;-146.25;100.00;52206.00;2072107;28;20047;-64
2023/08/19 03:14:31;;;;;;;24.52;22.17;;;;;;;-146.25;100.00;52222.22;2071586;28;26914;-64
2023/08/19 03:15:36;;;;;;;24.92;22.33;;;;;;;-146.25;100.00;52252.63;2079894;28;28629;-64
2023/08/19 03:16:40;;;;;;;25.48;22.95;;;;;;;-146.25;100.00;52216.13;2080627;28;20141;-64
2023/08/19 03:17:42;;;;;;;27.13;24.52;;;;;;;-146.25;100.00;52214.09;2080677;28;20173;-64
2023/08/19 03:18:46;;;;;;;25.08;22.88;;;;;;;-146.25;100.00;52240.47;2080388;28;20164;-64
2023/08/19 03:19:48;;;;;;;24.80;22.17;;;;;;;-146.25;100.00;52208.03;2072348;28;20064;-64
2023/08/19 03:20:59;;;;;;;25.30;23.00;;;;;;;-146.25;100.00;52197.88;2072663;28;20055;-64
2023/08/19 03:22:02;;;;;;;25.40;23.10;;;;;;;-146.25;100.00;52222.22;2073192;28;20047;-64
2023/08/19 03:23:03;;;;;;;24.65;22.15;;;;;;;-146.25;100.00;52189.78;2079991;28;30433;-64
2023/08/19 03:24:06;;;;;;;24.55;22.02;;;;;;;-146.25;100.00;52206.00;2079960;28;20058;-64
2023/08/19 03:25:09;;;;;;;23.38;21.27;;;;;;;-146.25;100.00;52173.56;2071254;28;20046;-65
2023/08/19 03:26:14;;;;;;;23.30;21.00;;;;;;;-146.25;100.00;52185.72;2080368;28;20038;-64
2023/08/19 03:27:18;;;;;;;22.08;20.13;;;;;;;-146.25;100.00;52214.09;2079821;28;20216;-65
2023/08/19 03:28:20;;;;;;;24.20;21.80;;;;;;;-146.25;100.00;52187.75;2080276;28;20034;-64
2023/08/19 03:29:24;;;;;;;23.33;21.10;;;;;;;-146.25;100.00;52214.09;2079428;28;31102;-65
2023/08/19 03:30:26;;;;;;;23.52;21.33;;;;;;;-146.25;100.00;52208.03;2080442;28;20074;-64
2023/08/19 03:31:27;;;;;;;24.80;22.30;;;;;;;-146.25;100.00;52226.25;2088084;28;20045;-64
2023/08/19 03:32:31;;;;;;;23.02;20.90;;;;;;;-146.25;100.00;52230.31;2080132;28;20127;-63
2023/08/19 03:33:33;;;;;;;23.90;21.50;;;;;;;-146.25;100.00;52187.75;2072080;28;20169;-64
2023/08/19 03:34:38;;;;;;;23.73;21.42;;;;;;;-146.25;100.00;52238.44;2071603;28;20042;-64
2023/08/19 03:35:40;;;;;;;26.17;23.55;;;;;;;-146.25;100.00;52191.81;2080567;28;20046;-64
2023/08/19 03:36:43;;;;;;;22.83;20.55;;;;;;;-146.25;100.00;52242.50;2080281;28;20163;-64
2023/08/19 03:37:45;;;;;;;24.58;22.00;;;;;;;-146.25;100.00;52214.09;2080518;28;20929;-64
2023/08/19 03:38:47;;;;;;;25.00;22.45;;;;;;;-146.25;100.00;52238.44;2080295;28;29165;-65
2023/08/19 03:39:51;;;;;;;24.98;22.45;;;;;;;-146.25;100.00;52208.03;2080180;28;20863;-65
2023/08/19 03:40:55;;;;;;;26.13;23.48;;;;;;;-146.25;100.00;52212.06;2079895;28;24583;-64
2023/08/19 03:41:59;;;;;;;22.83;20.73;;;;;;;-146.25;100.00;52201.94;2079880;28;24002;-64
2023/08/19 03:43:03;;;;;;;26.60;23.88;;;;;;;-146.25;100.00;52222.22;2080348;28;31615;-64
2023/08/19 03:44:06;;;;;;;25.08;22.58;;;;;;;-146.25;100.00;52206.00;2080174;28;20045;-65
2023/08/19 03:45:08;;;;;;;25.23;22.55;;;;;;;-146.25;100.00;52191.81;2087880;28;27859;-63
2023/08/19 03:46:10;;;;;;;26.13;23.38;;;;;;;-146.25;100.00;52232.34;2088864;28;20903;-64
2023/08/19 03:47:12;;;;;;;25.77;23.27;;;;;;;-146.25;100.00;52218.16;2088785;28;28146;-64
2023/08/19 03:48:15;;;;;;;26.35;23.73;;;;;;;-146.25;100.00;52201.94;2088384;28;20046;-64
2023/08/19 03:49:20;;;;;;;27.98;24.92;;;;;;;-146.25;100.00;52234.38;2087806;28;26180;-64
2023/08/19 03:50:23;;;;;;;26.65;23.95;;;;;;;-146.25;100.00;52224.25;2088274;28;20924;-64
2023/08/19 03:51:27;;;;;;;27.83;24.95;;;;;;;-146.25;100.00;52218.16;2088275;28;20156;-64
2023/08/19 03:52:29;;;;;;;26.88;24.35;;;;;;;-146.25;100.00;52254.66;2089197;28;20095;-64
2023/08/19 03:53:30;;;;;;;28.67;25.77;;;;;;;-146.25;100.00;52191.81;2087997;28;20080;-64
2023/08/19 03:54:33;;;;;;;27.13;24.30;;;;;;;-146.25;100.00;52218.16;2087793;28;20046;-64
2023/08/19 03:55:36;;;;;;;25.88;23.35;;;;;;;-146.25;100.00;52238.44;2087734;28;20969;-64
2023/08/19 03:56:38;;;;;;;27.10;24.35;;;;;;;-146.25;100.00;52224.25;2087836;28;20095;-65
2023/08/19 03:57:39;;;;;;;27.33;24.65;;;;;;;-146.25;100.00;52214.09;2080206;28;20084;-64
2023/08/19 03:58:47;;;;;;;27.02;24.25;;;;;;;-146.25;100.00;52248.56;2080125;28;20030;-64
2023/08/19 03:59:50;;;;;;;27.42;24.63;;;;;;;-146.25;100.00;52224.25;2088112;28;20069;-64
2023/08/19 04:00:52;;;;;;;28.42;25.52;;;;;;;-146.25;100.00;52187.75;2080076;28;20057;-64
2023/08/19 04:02:02;;;;;;;29.33;26.27;;;;;;;-146.25;100.00;52256.69;2081394;28;20069;-64
2023/08/19 04:03:06;;;;;;;26.63;23.95;;;;;;;-146.25;100.00;52230.31;2080121;28;20881;-64
2023/08/19 04:04:13;;;;;;;25.63;23.13;;;;;;;-146.25;100.00;52218.16;2080863;28;20026;-65
2023/08/19 04:05:16;;;;;;;25.52;22.98;;;;;;;-146.25;100.00;52208.03;2079779;28;20053;-64
2023/08/19 04:06:17;;;;;;;26.92;24.15;;;;;;;-146.25;100.00;52216.13;2080404;28;20038;-64
2023/08/19 04:07:19;;;;;;;28.05;25.33;;;;;;;-146.25;100.00;52201.94;2080808;28;29837;-66
2023/08/19 04:08:21;;;;;;;28.23;25.30;;;;;;;-146.25;100.00;52248.56;2112306;22;30997;-65
2023/08/19 04:09:23;;;;;;;29.13;26.15;;;;;;;-146.25;100.00;52212.06;2105115;28;25528;-65
2023/08/19 04:10:25;;;;;;;29.27;26.50;;;;;;;-146.25;100.00;52230.31;2096465;28;20139;-65
2023/08/19 04:11:28;;;;;;;28.40;25.35;;;;;;;-146.25;100.00;52226.25;2087883;28;20961;-65
2023/08/19 04:12:30;;;;;;;28.55;25.52;;;;;;;-146.25;100.00;52175.56;2096891;28;20065;-65
2023/08/19 04:13:32;;;;;;;29.20;26.20;;;;;;;-146.25;100.00;52191.81;2096998;28;20168;-65
2023/08/19 04:14:34;;;;;;;29.90;26.83;;;;;;;-146.25;100.00;52210.03;2097165;28;23606;-65
2023/08/19 04:15:39;;;;;;;28.92;25.90;;;;;;;-146.25;100.00;52230.31;2096082;28;20054;-65
2023/08/19 04:16:41;;;;;;;28.60;25.80;;;;;;;-146.25;100.00;52195.84;2088519;28;20045;-65
2023/08/19 04:17:43;;;;;;;30.10;27.08;;;;;;;-146.25;100.00;52230.31;2095533;28;29400;-65
2023/08/19 04:18:47;;;;;;;31.33;27.30;;;;;;;-146.25;100.00;52228.28;2104704;28;28857;-65
2023/08/19 04:19:52;;;;;;;28.38;25.60;;;;;;;-146.25;100.00;52224.25;2103780;28;27669;-65
2023/08/19 04:20:53;;;;;;;29.08;26.17;;;;;;;-146.25;100.00;52214.09;2096919;28;30443;-65
2023/08/19 04:21:55;;;;;;;30.02;26.85;;;;;;;-146.25;100.00;52222.22;2096285;28;20032;-65
2023/08/19 04:23:02;;;;;;;29.45;26.52;;;;;;;-146.25;100.00;52173.56;2104983;28;20137;-65
2023/08/19 04:24:07;;;;;;;29.90;26.98;;;;;;;-146.25;100.00;52199.91;2104331;28;23872;-64
2023/08/19 04:25:09;;;;;;;30.58;27.40;;;;;;;-146.25;100.00;52208.03;2099722;28;20111;-65
2023/08/19 04:26:11;;;;;;;28.02;25.33;;;;;;;-146.25;100.00;52216.13;2095273;28;30951;-65
2023/08/19 04:27:13;;;;;;;30.30;27.23;;;;;;;-146.25;100.00;52226.25;2080538;28;20045;-65
2023/08/19 04:28:15;;;;;;;29.63;26.52;;;;;;;-146.25;100.00;52228.28;2079987;28;20123;-65
2023/08/19 04:29:17;;;;;;;28.33;25.38;;;;;;;-146.25;100.00;52230.31;2080082;28;20168;-64
2023/08/19 04:30:19;;;;;;;28.88;26.08;;;;;;;-146.25;100.00;52181.66;2079908;28;20037;-65
2023/08/19 04:31:21;;;;;;;28.98;26.08;;;;;;;-146.25;100.00;52234.38;2079992;28;20115;-65
2023/08/19 04:32:30;;;;;;;29.30;26.40;;;;;;;-146.25;100.00;52203.97;2072277;28;20042;-64
2023/08/19 04:33:33;;;;;;;28.75;25.83;;;;;;;-146.25;100.00;52208.03;2079320;28;27009;-64
2023/08/19 04:34:34;;;;;;;30.23;26.95;;;;;;;-146.25;100.00;52218.16;2079336;28;20050;-65
2023/08/19 04:35:41;;;;;;;28.25;25.45;;;;;;;-146.25;100.00;52218.16;2079746;28;20034;-65
2023/08/19 04:36:43;;;;;;;28.40;25.58;;;;;;;-146.25;100.00;52222.22;2071958;28;20073;-65
2023/08/19 04:37:45;;;;;;;28.77;25.88;;;;;;;-146.25;100.00;52234.38;2079688;28;20119;-65
2023/08/19 04:38:47;;;;;;;28.55;25.48;;;;;;;-146.25;100.00;52230.31;2080553;28;20881;-65
2023/08/19 04:39:50;;;;;;;28.23;25.08;;;;;;;-146.25;100.00;52210.03;2081425;28;20050;-65
2023/08/19 04:41:02;;;;;;;26.45;23.95;;;;;;;-146.25;100.00;52226.25;2079425;28;20216;-65
2023/08/19 04:42:10;;;;;;;25.98;23.58;;;;;;;-146.25;100.00;52234.38;2079521;28;20929;-65
2023/08/19 04:43:14;;;;;;;24.58;21.92;;;;;;;-146.25;100.00;52232.34;2079779;28;20907;-66
2023/08/19 04:44:17;;;;;;;24.10;21.55;;;;;;;-146.25;100.00;52268.84;2079958;28;20188;-65